Time;durP1;ratioP1;P1;durP2;ratioP2;P2;SDS_P1;SDS_P2;PMS_P1;PMS_P2;Temp;Humidity;BMP_temperature;BMP_pressure;BME280_temperature;BME280_humidity;BME280_pressure;Samples;Min_cycle;Max_cycle;Signal;HPM_P1;HPM_P2
2021/08/26 00:00:28;;;;;;;;;;;;;;;21.29;53.59;100522.47;5040703;28;19972;-74
2021/08/26 00:05:50;;;;;;;;;;;;;;;21.28;53.45;100512.66;5035801;28;19940;-74
2021/08/26 00:08:20;;;;;;;;;;;;;;;21.29;53.55;100518.88;5039576;28;19932;-74
2021/08/26 00:10:48;;;;;;;;;;;;;;;21.26;53.80;100516.44;5039059;28;20396;-74
2021/08/26 00:13:18;;;;;;;;;;;;;;;21.26;53.63;100519.97;5038439;28;19992;-74
2021/08/26 00:15:46;;;;;;;;;;;;;;;21.28;53.57;100517.19;5036650;28;20013;-74
2021/08/26 00:18:16;;;;;;;;;;;;;;;21.28;53.61;100515.34;5034024;28;20096;-74
2021/08/26 00:20:47;;;;;;;;;;;;;;;21.26;53.57;100508.38;5038312;28;20930;-74
2021/08/26 00:23:16;;;;;;;;;;;;;;;21.26;53.44;100511.91;5038201;28;19959;-74
2021/08/26 00:25:44;;;;;;;;;;;;;;;21.28;53.51;100511.81;5040567;28;20027;-74
2021/08/26 00:28:12;;;;;;;;;;;;;;;21.26;53.27;100509.22;5037743;28;19932;-74
2021/08/26 00:30:41;;;;;;;;;;;;;;;21.27;53.14;100512.78;5034040;28;19979;-74
2021/08/26 00:33:10;;;;;;;;;;;;;;;21.25;53.34;100510.22;5042903;28;19939;-74
2021/08/26 00:35:38;;;;;;;;;;;;;;;;;;5049279;28;19966;-73
2021/08/26 00:38:06;;;;;;;;;;;;;;;;;;5049653;28;19932;-74
2021/08/26 00:40:33;;;;;;;;;;;;;;;21.25;53.12;100506.66;5052361;28;19975;-73
2021/08/26 00:43:01;;;;;;;;;;;;;;;21.23;53.19;100509.47;5047146;28;19943;-74
2021/08/26 00:45:29;;;;;;;;;;;;;;;21.25;53.12;100514.72;5047204;28;20019;-74
2021/08/26 00:47:59;;;;;;;;;;;;;;;21.22;53.28;100505.06;5045924;28;19937;-74
2021/08/26 00:50:27;;;;;;;;;;;;;;;21.23;53.33;100510.34;5051418;28;20014;-74
2021/08/26 00:52:55;;;;;;;;;;;;;;;21.23;53.16;100504.97;5046034;28;19932;-74
2021/08/26 00:55:23;;;;;;;;;;;;;;;21.23;53.34;100502.28;5050956;28;19933;-74
2021/08/26 00:57:51;;;;;;;;;;;;;;;21.22;53.27;100511.31;5049060;28;19963;-74
2021/08/26 01:00:19;;;;;;;;;;;;;;;21.23;52.95;100506.78;5042589;28;19939;-74
2021/08/26 01:02:51;;;;;;;;;;;;;;;21.21;53.01;100504.22;5049624;28;19954;-74
2021/08/26 01:05:22;;;;;;;;;;;;;;;21.21;52.86;100503.38;5049604;28;19932;-74
2021/08/26 01:07:54;;;;;;;;;;;;;;;21.21;53.11;100495.28;5051173;28;19932;-74
2021/08/26 01:10:23;;;;;;;;;;;;;;;21.21;52.97;100501.53;5050783;28;19950;-74
2021/08/26 01:12:55;;;;;;;;;;;;;;;21.23;52.88;100504.09;5045943;28;20047;-74
2021/08/26 01:15:26;;;;;;;;;;;;;;;21.22;52.92;100505.06;5046919;28;19942;-74
2021/08/26 01:17:54;;;;;;;;;;;;;;;21.21;53.00;100498.84;5050359;28;19932;-74
2021/08/26 01:20:24;;;;;;;;;;;;;;;21.21;53.06;100506.91;5051894;28;19933;-74
2021/08/26 01:22:52;;;;;;;;;;;;;;;21.21;52.97;100509.59;5050086;28;19933;-74
2021/08/26 01:25:20;;;;;;;;;;;;;;;21.20;53.06;100502.50;5050426;28;19958;-74
2021/08/26 01:27:52;;;;;;;;;;;;;;;21.22;53.16;100499.69;5044908;28;19963;-74
2021/08/26 01:30:21;;;;;;;;;;;;;;;21.22;53.02;100497.88;5046869;28;19939;-74
2021/08/26 01:32:50;;;;;;;;;;;;;;;21.22;53.06;100497.00;5048588;28;20128;-74
2021/08/26 01:35:19;;;;;;;;;;;;;;;21.21;53.00;100496.13;5051138;28;19959;-74
2021/08/26 01:37:47;;;;;;;;;;;;;;;21.20;53.06;100497.09;5050185;28;20732;-74
2021/08/26 01:40:15;;;;;;;;;;;;;;;21.20;53.07;100501.66;5046041;28;19944;-73
2021/08/26 01:42:44;;;;;;;;;;;;;;;21.20;52.92;100505.19;5042184;28;19933;-74
2021/08/26 01:45:13;;;;;;;;;;;;;;;21.20;53.22;100499.78;5049144;28;19940;-74
2021/08/26 01:47:41;;;;;;;;;;;;;;;21.20;52.89;100502.50;5049145;28;20013;-74
2021/08/26 01:50:10;;;;;;;;;;;;;;;21.20;52.91;100505.19;5050480;28;19964;-74
2021/08/26 01:52:37;;;;;;;;;;;;;;;21.19;53.10;100498.06;5050493;28;19967;-74
2021/08/26 01:55:06;;;;;;;;;;;;;;;21.18;52.82;100496.38;5047447;28;19968;-74
2021/08/26 01:57:33;;;;;;;;;;;;;;;21.18;52.82;100498.19;5045729;28;20009;-74
2021/08/26 02:00:04;;;;;;;;;;;;;;;21.17;52.91;100497.34;5047789;28;19948;-74
2021/08/26 02:02:34;;;;;;;;;;;;;;;21.16;52.65;100497.47;5049145;28;19925;-74
2021/08/26 02:05:02;;;;;;;;;;;;;;;21.16;52.54;100494.78;5050063;28;19983;-74
2021/08/26 02:07:30;;;;;;;;;;;;;;;21.16;52.75;100500.16;5051269;28;19932;-74
2021/08/26 02:09:58;;;;;;;;;;;;;;;21.16;52.45;100492.09;5042699;28;19933;-74
2021/08/26 02:12:26;;;;;;;;;;;;;;;21.16;52.72;100494.78;5044450;28;19932;-74
2021/08/26 02:14:53;;;;;;;;;;;;;;;21.17;52.81;100496.47;5049011;28;20031;-74
2021/08/26 02:17:21;;;;;;;;;;;;;;;21.15;52.80;100491.22;5049067;28;20009;-74
2021/08/26 02:19:51;;;;;;;;;;;;;;;21.14;52.81;100492.19;5047043;28;19972;-74
2021/08/26 02:22:18;;;;;;;;;;;;;;;21.15;52.53;100493.06;5046467;28;20312;-74
2021/08/26 02:24:46;;;;;;;;;;;;;;;21.14;52.65;100488.66;5043294;28;19964;-74
2021/08/26 02:27:14;;;;;;;;;;;;;;;21.14;52.65;100492.19;5049366;28;19941;-74
2021/08/26 02:29:42;;;;;;;;;;;;;;;21.13;52.67;100492.31;5048828;28;20433;-74
2021/08/26 02:32:10;;;;;;;;;;;;;;;21.12;52.47;100493.31;5047921;28;19955;-74
2021/08/26 02:34:38;;;;;;;;;;;;;;;21.11;52.38;100483.53;5049124;28;19966;-74
2021/08/26 02:37:08;;;;;;;;;;;;;;;21.11;52.55;100480.81;5046209;28;19939;-74
2021/08/26 02:39:36;;;;;;;;;;;;;;;21.10;52.37;100481.78;5044523;28;19936;-74
2021/08/26 02:42:04;;;;;;;;;;;;;;;21.10;52.48;100482.66;5046905;28;20025;-74
2021/08/26 02:44:32;;;;;;;;;;;;;;;21.10;52.44;100479.94;5048476;28;19932;-74
2021/08/26 02:47:00;;;;;;;;;;;;;;;21.10;52.67;100479.09;5045320;28;19964;-73
2021/08/26 02:49:28;;;;;;;;;;;;;;;21.09;52.48;100475.56;5048867;28;19939;-74
2021/08/26 02:51:56;;;;;;;;;;;;;;;21.11;52.41;100483.53;5042214;28;20016;-74
2021/08/26 02:54:25;;;;;;;;;;;;;;;21.11;52.78;100476.28;5047313;28;19928;-74
2021/08/26 02:56:53;;;;;;;;;;;;;;;21.11;52.85;100478.13;5048326;28;19975;-74
2021/08/26 02:59:21;;;;;;;;;;;;;;;21.10;52.34;100482.66;5050579;28;19939;-75
2021/08/26 03:01:48;;;;;;;;;;;;;;;21.10;52.71;100471.88;5048571;28;20020;-74
2021/08/26 03:04:17;;;;;;;;;;;;;;;21.10;52.48;100476.41;5046243;28;19940;-74
2021/08/26 03:06:45;;;;;;;;;;;;;;;21.10;52.57;100473.72;5042537;28;20023;-74
2021/08/26 03:09:12;;;;;;;;;;;;;;;21.10;52.57;100479.09;5047491;28;19947;-74
2021/08/26 03:11:42;;;;;;;;;;;;;;;21.11;52.46;100470.06;5048460;28;20037;-73
2021/08/26 03:14:10;;;;;;;;;;;;;;;21.12;52.85;100471.78;5050877;28;19933;-74
2021/08/26 03:16:37;;;;;;;;;;;;;;;21.12;52.46;100479.88;5048599;28;19933;-74
2021/08/26 03:19:06;;;;;;;;;;;;;;;21.10;52.43;100474.56;5044508;28;20138;-74
2021/08/26 03:21:33;;;;;;;;;;;;;;;21.08;52.48;100467.59;5044067;28;20051;-74
2021/08/26 03:24:01;;;;;;;;;;;;;;;21.06;52.46;100468.59;5048229;28;19932;-74
2021/08/26 03:26:29;;;;;;;;;;;;;;;21.06;52.84;100473.09;5045964;28;19964;-74
2021/08/26 03:28:58;;;;;;;;;;;;;;;21.05;52.71;100485.69;5047931;28;19932;-73
2021/08/26 03:31:26;;;;;;;;;;;;;;;21.05;52.56;100476.75;5046707;28;19976;-74
2021/08/26 03:33:54;;;;;;;;;;;;;;;21.05;52.80;100483.00;5040763;28;19964;-74
2021/08/26 03:36:26;;;;;;;;;;;;;;;21.04;52.59;100481.28;5044586;28;20050;-74
2021/08/26 03:38:54;;;;;;;;;;;;;;;21.06;52.72;100483.84;5049028;28;20019;-74
2021/08/26 03:41:22;;;;;;;;;;;;;;;21.05;52.32;100482.13;5045826;28;19932;-74
2021/08/26 03:43:51;;;;;;;;;;;;;;;21.04;52.66;100485.81;5049662;28;19932;-74
2021/08/26 03:46:20;;;;;;;;;;;;;;;21.04;52.58;100483.13;5047361;28;20119;-74
2021/08/26 03:48:48;;;;;;;;;;;;;;;21.03;52.55;100484.09;5043050;28;19947;-74
2021/08/26 03:51:16;;;;;;;;;;;;;;;21.01;52.41;100484.22;5046020;28;19933;-74
2021/08/26 03:53:44;;;;;;;;;;;;;;;21.01;52.28;100483.34;5046396;28;19932;-74
2021/08/26 03:56:12;;;;;;;;;;;;;;;21.00;52.40;100477.13;5048049;28;19971;-74
2021/08/26 03:58:40;;;;;;;;;;;;;;;21.02;52.58;100482.38;5047849;28;19933;-74
2021/08/26 04:01:08;;;;;;;;;;;;;;;21.00;52.77;100482.50;5045853;28;20448;-74
2021/08/26 04:03:38;;;;;;;;;;;;;;;21.01;52.58;100483.34;5040943;28;21059;-74
2021/08/26 04:06:06;;;;;;;;;;;;;;;21.00;52.37;100476.25;5047744;28;20002;-74
2021/08/26 04:08:34;;;;;;;;;;;;;;;20.99;52.51;100475.41;5050908;28;20514;-74
2021/08/26 04:11:04;;;;;;;;;;;;;;;21.01;52.38;100473.47;5053426;28;19967;-74
2021/08/26 04:13:32;;;;;;;;;;;;;;;21.00;52.69;100476.25;5050817;28;20005;-74
2021/08/26 04:16:00;;;;;;;;;;;;;;;21.00;52.46;100468.19;5061583;28;19933;-74
2021/08/26 04:18:29;;;;;;;;;;;;;;;21.00;52.50;100474.44;5047328;28;20562;-74
2021/08/26 04:20:58;;;;;;;;;;;;;;;21.00;52.38;100463.69;5051951;28;20019;-74
2021/08/26 04:23:26;;;;;;;;;;;;;;;20.99;52.48;100466.47;5049693;28;19928;-74
2021/08/26 04:25:55;;;;;;;;;;;;;;;21.00;52.42;100473.56;5050596;28;19933;-74
2021/08/26 04:28:23;;;;;;;;;;;;;;;20.99;52.62;100471.88;5049943;28;20039;-74
2021/08/26 04:30:51;;;;;;;;;;;;;;;20.98;52.34;100464.75;5044987;28;19940;-74
2021/08/26 04:33:19;;;;;;;;;;;;;;;20.99;52.70;100469.19;5043893;28;20082;-74
2021/08/26 04:35:48;;;;;;;;;;;;;;;20.99;52.48;100475.41;5049313;28;19938;-74
2021/08/26 04:38:17;;;;;;;;;;;;;;;20.99;52.58;100472.72;5049592;28;20317;-74
2021/08/26 04:40:45;;;;;;;;;;;;;;;20.99;52.38;100478.09;5050755;28;19933;-74
2021/08/26 04:43:14;;;;;;;;;;;;;;;21.00;52.49;100473.56;5043080;28;20452;-74
2021/08/26 04:45:42;;;;;;;;;;;;;;;21.00;52.51;100474.44;5042350;28;19942;-74
2021/08/26 04:48:10;;;;;;;;;;;;;;;21.00;52.63;100476.25;5050589;28;20088;-74
2021/08/26 04:50:39;;;;;;;;;;;;;;;20.99;52.52;100471.88;5049959;28;19932;-74
2021/08/26 04:53:06;;;;;;;;;;;;;;;20.99;52.26;100475.41;5048987;28;20062;-74
2021/08/26 04:55:36;;;;;;;;;;;;;;;21.00;52.46;100474.44;5049140;28;19998;-73
2021/08/26 04:58:04;;;;;;;;;;;;;;;21.00;52.78;100477.13;5046465;28;19974;-74
2021/08/26 05:00:32;;;;;;;;;;;;;;;20.99;52.44;100467.34;5047525;28;20253;-74
2021/08/26 05:03:00;;;;;;;;;;;;;;;21.01;52.38;100472.59;5045847;28;20047;-73
2021/08/26 05:05:28;;;;;;;;;;;;;;;21.00;52.51;100469.06;5048264;28;19932;-74
2021/08/26 05:07:56;;;;;;;;;;;;;;;20.99;52.48;100464.66;5050146;28;20024;-73
2021/08/26 05:10:24;;;;;;;;;;;;;;;21.00;52.63;100463.69;5048473;28;19932;-74
2021/08/26 05:12:53;;;;;;;;;;;;;;;20.98;52.47;100462.91;5040928;28;19932;-74
2021/08/26 05:15:21;;;;;;;;;;;;;;;20.99;52.25;100455.72;5049395;28;20464;-74
2021/08/26 05:17:49;;;;;;;;;;;;;;;20.99;52.50;100461.09;5049341;28;20042;-74
2021/08/26 05:20:18;;;;;;;;;;;;;;;20.99;52.28;100472.72;5049401;28;19929;-74
2021/08/26 05:22:45;;;;;;;;;;;;;;;21.00;52.42;100469.06;5049489;28;20035;-75
2021/08/26 05:25:13;;;;;;;;;;;;;;;21.03;52.09;100467.97;5045501;28;19932;-74
2021/08/26 05:27:41;;;;;;;;;;;;;;;21.12;51.99;100469.94;5045899;28;20115;-75
2021/08/26 05:30:11;;;;;;;;;;;;;;;21.19;53.22;100468.50;5047158;28;19932;-78
2021/08/26 05:32:38;;;;;;;;;;;;;;;21.27;54.92;100469.75;5050653;28;20017;-73
2021/08/26 05:35:07;;;;;;;;;;;;;;;21.36;54.22;100471.72;5050517;28;20031;-73
2021/08/26 05:37:34;;;;;;;;;;;;;;;21.38;54.16;100469.78;5050790;28;19932;-74
2021/08/26 05:40:03;;;;;;;;;;;;;;;21.40;53.99;100465.97;5046450;28;20286;-77
2021/08/26 05:42:31;;;;;;;;;;;;;;;21.37;54.68;100466.22;5044949;28;20663;-78
2021/08/26 05:44:59;;;;;;;;;;;;;;;21.40;54.79;100467.81;5050488;28;19932;-75
2021/08/26 05:47:28;;;;;;;;;;;;;;;21.39;54.71;100455.34;5050504;28;20426;-77
2021/08/26 05:49:56;;;;;;;;;;;;;;;21.40;55.18;100467.81;5048307;28;20922;-77
2021/08/26 05:52:24;;;;;;;;;;;;;;;21.44;55.93;100457.69;5047570;28;19940;-75
2021/08/26 05:54:51;;;;;;;;;;;;;;;21.44;56.24;100460.38;5043890;28;20313;-74
2021/08/26 05:57:19;;;;;;;;;;;;;;;21.48;55.98;100456.47;5048796;28;20321;-75
2021/08/26 05:59:47;;;;;;;;;;;;;;;21.54;56.03;100459.56;5049943;28;19990;-78
2021/08/26 06:02:15;;;;;;;;;;;;;;;21.54;56.47;100462.25;5046615;28;20438;-75
2021/08/26 06:04:45;;;;;;;;;;;;;;;21.53;56.76;100460.50;5049669;28;19932;-75
2021/08/26 06:07:13;;;;;;;;;;;;;;;21.48;56.50;100460.00;5045962;28;20196;-76
2021/08/26 06:09:41;;;;;;;;;;;;;;;21.46;56.12;100466.47;5044440;28;20318;-76
2021/08/26 06:12:09;;;;;;;;;;;;;;;21.16;49.35;100460.66;5045157;28;19936;-86
2021/08/26 06:14:36;;;;;;;;;;;;;;;21.08;49.32;100464.91;5049785;28;19971;-92
2021/08/26 06:17:04;;;;;;;;;;;;;;;21.07;52.49;100458.69;5050680;28;19933;-74
2021/08/26 06:19:32;;;;;;;;;;;;;;;21.11;53.08;100462.84;5050211;28;20334;-75
2021/08/26 06:22:02;;;;;;;;;;;;;;;21.10;52.44;100463.81;5044222;28;19933;-74
2021/08/26 06:24:30;;;;;;;;;;;;;;;21.06;51.53;100465.91;5043428;28;20013;-75
2021/08/26 06:27:01;;;;;;;;;;;;;;;20.98;51.68;100472.84;5037769;28;20455;-75
2021/08/26 06:29:29;;;;;;;;;;;;;;;20.95;51.77;100465.00;5056066;28;19936;-74
2021/08/26 06:31:57;;;;;;;;;;;;;;;19.63;53.02;100479.75;5057836;28;19936;-74
2021/08/26 06:34:25;;;;;;;;;;;;;;;19.41;49.63;100470.53;5058935;28;20008;-74
2021/08/26 06:36:53;;;;;;;;;;;;;;;19.72;51.37;100473.78;5052973;28;19997;-74
2021/08/26 06:39:22;;;;;;;;;;;;;;;20.26;51.31;100476.31;5060124;28;19924;-74
2021/08/26 06:41:50;;;;;;;;;;;;;;;20.49;50.77;100463.88;5058264;28;20020;-73
2021/08/26 06:44:18;;;;;;;;;;;;;;;20.61;50.66;100470.19;5059837;28;19928;-72
2021/08/26 06:46:45;;;;;;;;;;;;;;;20.68;49.84;100468.75;5060435;28;20421;-73
2021/08/26 06:49:14;;;;;;;;;;;;;;;19.54;49.52;100475.03;5057048;28;19928;-73
2021/08/26 06:51:41;;;;;;;;;;;;;;;19.80;50.27;100477.72;5054291;28;19925;-73
2021/08/26 06:54:09;;;;;;;;;;;;;;;20.26;50.42;100476.31;5060441;28;19981;-73
2021/08/26 06:56:39;;;;;;;;;;;;;;;20.45;50.14;100474.00;5052529;28;19964;-72
2021/08/26 06:59:06;;;;;;;;;;;;;;;20.57;49.85;100486.50;5057953;28;19939;-73
2021/08/26 07:01:34;;;;;;;;;;;;;;;20.34;49.31;100488.22;5061488;28;19972;-73
2021/08/26 07:04:03;;;;;;;;;;;;;;;19.55;49.91;100488.38;5056490;28;19935;-73
2021/08/26 07:06:31;;;;;;;;;;;;;;;20.09;50.20;100496.31;5053301;28;19994;-72
2021/08/26 07:09:00;;;;;;;;;;;;;;;20.36;50.20;100497.00;5057332;28;19934;-73
2021/08/26 07:11:28;;;;;;;;;;;;;;;20.50;50.04;100496.00;5045369;28;19991;-74
2021/08/26 07:13:57;;;;;;;;;;;;;;;20.55;49.89;100482.22;5047408;28;20487;-74
2021/08/26 07:16:25;;;;;;;;;;;;;;;19.89;50.44;100499.44;5040195;28;20343;-73
2021/08/26 07:18:53;;;;;;;;;;;;;;;20.16;50.55;100502.94;5034492;28;20032;-74
2021/08/26 07:21:21;;;;;;;;;;;;;;;20.42;49.94;100497.53;5045218;28;19941;-74
2021/08/26 07:23:49;;;;;;;;;;;;;;;20.53;50.64;100497.63;5043432;28;19928;-75
2021/08/26 07:26:19;;;;;;;;;;;;;;;20.62;50.90;100491.56;5041894;28;20452;-78
2021/08/26 07:28:47;;;;;;;;;;;;;;;20.33;48.41;100496.38;5047161;28;20345;-77
2021/08/26 07:31:16;;;;;;;;;;;;;;;20.10;49.82;100506.94;5039068;28;20039;-77
2021/08/26 07:33:44;;;;;;;;;;;;;;;20.39;50.65;100488.75;5038505;28;19968;-78
2021/08/26 07:36:12;;;;;;;;;;;;;;;20.53;50.39;100492.25;5042081;28;20039;-77
2021/08/26 07:38:40;;;;;;;;;;;;;;;20.60;50.41;100498.88;5040507;28;20282;-78
2021/08/26 07:41:08;;;;;;;;;;;;;;;20.38;49.56;100497.75;5046076;28;19940;-77
2021/08/26 07:43:39;;;;;;;;;;;;;;;20.13;50.95;100506.75;5062086;28;20047;-77
2021/08/26 07:46:07;;;;;;;;;;;;;;;20.40;50.83;100498.50;5055959;28;19940;-77
2021/08/26 07:48:40;;;;;;;;;;;;;;;20.52;50.74;100495.91;5055973;28;19928;-78
2021/08/26 07:51:09;;;;;;;;;;;;;;;20.56;50.63;100492.00;5060611;28;19943;-78
2021/08/26 07:53:39;;;;;;;;;;;;;;;20.55;50.33;100501.91;5059865;28;19929;-77
2021/08/26 07:56:07;;;;;;;;;;;;;;;19.92;49.97;100493.00;5062465;28;19982;-76
2021/08/26 07:58:37;;;;;;;;;;;;;;;20.24;50.60;100492.53;5061274;28;19974;-75
2021/08/26 08:01:05;;;;;;;;;;;;;;;20.40;50.50;100503.88;5057628;28;19925;-76
2021/08/26 08:03:42;;;;;;;;;;;;;;;20.47;50.62;100500.75;5058803;28;20321;-76
2021/08/26 08:06:12;;;;;;;;;;;;;;;20.50;50.36;100495.13;5062577;28;19955;-76
2021/08/26 08:08:39;;;;;;;;;;;;;;;19.84;48.50;100490.88;5063292;28;19932;-75
2021/08/26 08:11:07;;;;;;;;;;;;;;;20.09;50.58;100505.22;5070686;28;19928;-75
2021/08/26 08:13:43;;;;;;;;;;;;;;;20.30;50.35;100494.75;5057036;28;19965;-75
2021/08/26 08:16:11;;;;;;;;;;;;;;;20.41;50.45;100491.31;5058414;28;20031;-75
2021/08/26 08:18:41;;;;;;;;;;;;;;;20.47;50.66;100490.00;5063433;28;19936;-76
2021/08/26 08:21:08;;;;;;;;;;;;;;;20.49;50.49;100491.59;5064178;28;20013;-76
2021/08/26 08:23:38;;;;;;;;;;;;;;;19.92;48.31;100501.03;5066231;28;19981;-75
2021/08/26 08:26:10;;;;;;;;;;;;;;;20.09;50.01;100499.84;5063316;28;20304;-76
2021/08/26 08:28:39;;;;;;;;;;;;;;;20.29;50.26;100498.44;5056513;28;19952;-76
2021/08/26 08:31:07;;;;;;;;;;;;;;;20.38;49.97;100503.13;5059648;28;19974;-76
2021/08/26 08:33:36;;;;;;;;;;;;;;;20.44;50.17;100496.44;5060480;28;19939;-76
2021/08/26 08:36:05;;;;;;;;;;;;;;;20.48;50.25;100502.47;5062975;28;20020;-76
2021/08/26 08:38:34;;;;;;;;;;;;;;;20.49;50.35;100488.91;5065128;28;19936;-76
2021/08/26 08:41:03;;;;;;;;;;;;;;;20.30;49.57;100499.28;5058469;28;20205;-78
2021/08/26 08:43:33;;;;;;;;;;;;;;;19.97;50.09;100498.03;5054003;28;20543;-77
2021/08/26 08:46:05;;;;;;;;;;;;;;;20.24;50.07;100498.75;5061504;28;20031;-77
2021/08/26 08:48:37;;;;;;;;;;;;;;;20.38;49.53;100500.47;5063486;28;19928;-78
2021/08/26 08:51:06;;;;;;;;;;;;;;;20.48;50.19;100494.41;5063522;28;19991;-77
2021/08/26 08:53:40;;;;;;;;;;;;;;;20.53;49.61;100493.09;5056628;28;19971;-78
2021/08/26 08:56:09;;;;;;;;;;;;;;;20.62;50.24;100502.31;5050070;28;19931;-75
2021/08/26 08:58:41;;;;;;;;;;;;;;;20.50;49.57;100493.31;5054235;28;19976;-78
2021/08/26 09:01:09;;;;;;;;;;;;;;;20.44;49.76;100500.97;5055046;28;19950;-82
2021/08/26 09:03:38;;;;;;;;;;;;;;;20.52;49.92;100502.13;5057034;28;19929;-79
2021/08/26 09:06:08;;;;;;;;;;;;;;;20.62;49.70;100501.44;5061069;28;20621;-82
2021/08/26 09:08:42;;;;;;;;;;;;;;;20.63;50.17;100506.72;5062522;28;19946;-82
2021/08/26 09:11:12;;;;;;;;;;;;;;;20.61;50.26;100492.53;5056422;28;20373;-82
2021/08/26 09:13:41;;;;;;;;;;;;;;;20.63;50.42;100500.47;5060754;28;20051;-81
2021/08/26 09:16:09;;;;;;;;;;;;;;;20.63;50.44;100493.28;5065722;28;19932;-79
2021/08/26 09:18:41;;;;;;;;;;;;;;;20.64;50.48;100491.44;5058826;28;20309;-81
2021/08/26 09:21:10;;;;;;;;;;;;;;;20.64;50.28;100492.28;5059612;28;19936;-81
2021/08/26 09:23:52;;;;;;;;;;;;;;;20.66;50.57;100497.59;5059017;28;20359;-82
2021/08/26 09:26:22;;;;;;;;;;;;;;;20.67;50.54;100497.47;5053129;28;19961;-79
2021/08/26 09:28:51;;;;;;;;;;;;;;;20.68;50.83;100501.00;5061427;28;19955;-79
2021/08/26 09:31:19;;;;;;;;;;;;;;;20.46;50.79;100493.66;5061429;28;19956;-79
2021/08/26 09:33:51;;;;;;;;;;;;;;;20.20;50.92;100510.69;5059833;28;19929;-79
2021/08/26 09:36:21;;;;;;;;;;;;;;;20.43;50.87;100501.94;5061358;28;19943;-79
2021/08/26 09:38:53;;;;;;;;;;;;;;;20.52;50.71;100495.91;5053385;28;19928;-79
2021/08/26 09:41:42;;;;;;;;;;;;;;;20.59;50.50;100499.00;5059624;28;19933;-79
2021/08/26 09:44:11;;;;;;;;;;;;;;;20.61;50.75;100507.81;5058125;28;20354;-79
2021/08/26 09:46:39;;;;;;;;;;;;;;;20.62;50.77;100504.13;5061526;28;20031;-78
2021/08/26 09:49:07;;;;;;;;;;;;;;;20.53;50.17;100500.31;5057980;28;19932;-79
2021/08/26 09:51:35;;;;;;;;;;;;;;;20.03;50.34;100505.69;5058003;28;19971;-79
2021/08/26 09:54:04;;;;;;;;;;;;;;;20.35;50.25;100507.88;5057448;28;20021;-81
2021/08/26 09:56:38;;;;;;;;;;;;;;;20.47;50.44;100496.22;5054511;28;19963;-81
2021/08/26 09:59:08;;;;;;;;;;;;;;;20.51;50.30;100499.53;5061714;28;19928;-78
2021/08/26 10:01:38;;;;;;;;;;;;;;;20.54;50.34;100497.50;5057118;28;20047;-78
2021/08/26 10:04:24;;;;;;;;;;;;;;;20.61;50.01;100497.06;5059239;28;19964;-78
2021/08/26 10:06:52;;;;;;;;;;;;;;;20.02;49.71;100503.94;5051461;28;21302;-79
2021/08/26 10:09:20;;;;;;;;;;;;;;;20.32;50.43;100495.50;5053502;28;20015;-81
2021/08/26 10:11:49;;;;;;;;;;;;;;;20.51;50.11;100491.47;5061038;28;19935;-80
2021/08/26 10:14:18;;;;;;;;;;;;;;;20.61;50.14;100495.22;5059569;28;20400;-81
2021/08/26 10:16:46;;;;;;;;;;;;;;;20.68;50.25;100483.06;5055627;28;20797;-81
2021/08/26 10:19:15;;;;;;;;;;;;;;;20.72;50.22;100498.00;5053303;28;19971;-80
2021/08/26 10:21:44;;;;;;;;;;;;;;;20.75;50.21;100501.44;5055612;28;19928;-79
2021/08/26 10:24:13;;;;;;;;;;;;;;;19.97;48.31;100501.59;5058887;28;19967;-80
2021/08/26 10:26:43;;;;;;;;;;;;;;;20.34;50.34;100498.97;5058898;28;20015;-83
2021/08/26 10:29:11;;;;;;;;;;;;;;;20.44;49.73;100506.34;5059069;28;19944;-81
2021/08/26 10:31:41;;;;;;;;;;;;;;;20.47;49.76;100500.75;5056344;28;20447;-81
2021/08/26 10:34:13;;;;;;;;;;;;;;;20.63;50.71;100500.47;5056148;28;19925;-82
2021/08/26 10:36:45;;;;;;;;;;;;;;;20.72;49.76;100505.19;5055774;28;19933;-79
2021/08/26 10:39:26;;;;;;;;;;;;;;;20.76;50.03;100506.69;5060560;28;20335;-85
2021/08/26 10:41:55;;;;;;;;;;;;;;;20.23;47.85;100506.94;5060320;28;20034;-82
2021/08/26 10:44:23;;;;;;;;;;;;;;;20.30;50.48;100516.25;5062492;28;19933;-84
2021/08/26 10:46:54;;;;;;;;;;;;;;;20.50;50.28;100505.88;5059551;28;19929;-81
2021/08/26 10:49:23;;;;;;;;;;;;;;;20.62;50.35;100509.50;5049931;28;19933;-83
2021/08/26 10:51:52;;;;;;;;;;;;;;;20.69;50.33;100508.97;5056720;28;19967;-81
2021/08/26 10:54:25;;;;;;;;;;;;;;;20.74;50.05;100514.00;5056884;28;19931;-82
2021/08/26 10:56:53;;;;;;;;;;;;;;;20.77;50.25;100507.56;5060588;28;20318;-82
2021/08/26 10:59:27;;;;;;;;;;;;;;;20.07;49.43;100512.53;5054727;28;19967;-81
2021/08/26 11:01:57;;;;;;;;;;;;;;;20.50;50.04;100501.38;5056380;28;19964;-87
2021/08/26 11:04:30;;;;;;;;;;;;;;;20.62;50.03;100510.38;5051027;28;19943;-82
2021/08/26 11:06:58;;;;;;;;;;;;;;;20.78;49.50;100511.97;5061996;28;19978;-80
2021/08/26 11:09:44;;;;;;;;;;;;;;;20.87;50.23;100519.34;5058559;28;19975;-81
2021/08/26 11:12:27;;;;;;;;;;;;;;;20.92;49.86;100508.22;5060722;28;19936;-82
2021/08/26 11:15:00;;;;;;;;;;;;;;;20.97;51.31;100506.94;5056144;28;19928;-81
2021/08/26 11:17:31;;;;;;;;;;;;;;;21.00;51.75;100509.38;5055475;28;20545;-82
2021/08/26 11:20:00;;;;;;;;;;;;;;;21.02;51.62;100515.50;5055064;28;19933;-80
2021/08/26 11:22:28;;;;;;;;;;;;;;;21.12;53.52;100504.91;5061164;28;20043;-79
2021/08/26 11:25:00;;;;;;;;;;;;;;;21.18;54.22;100509.84;5058187;28;19933;-79
2021/08/26 11:27:29;;;;;;;;;;;;;;;21.20;54.13;100515.94;5059535;28;19931;-76
2021/08/26 11:29:58;;;;;;;;;;;;;;;21.25;54.20;100509.34;5052160;28;19975;-77
2021/08/26 11:32:26;;;;;;;;;;;;;;;21.27;54.39;100519.00;5045958;28;19929;-76
2021/08/26 11:34:57;;;;;;;;;;;;;;;21.27;53.85;100512.78;5055915;28;19983;-76
2021/08/26 11:37:26;;;;;;;;;;;;;;;21.28;53.52;100518.03;5052500;28;19932;-76
2021/08/26 11:39:56;;;;;;;;;;;;;;;21.26;53.47;100519.13;5055236;28;19956;-76
2021/08/26 11:42:26;;;;;;;;;;;;;;;21.26;53.85;100525.38;5061561;28;20034;-76
2021/08/26 11:45:11;;;;;;;;;;;;;;;21.25;53.46;100520.09;5053059;28;19924;-75
2021/08/26 11:47:40;;;;;;;;;;;;;;;21.29;52.97;100524.28;5051274;28;20025;-76
2021/08/26 11:50:11;;;;;;;;;;;;;;;21.32;52.54;100527.59;5057301;28;19964;-76
2021/08/26 11:52:39;;;;;;;;;;;;;;;21.32;53.34;100529.44;5059651;28;19946;-77
2021/08/26 11:55:28;;;;;;;;;;;;;;;21.33;52.85;100523.09;5056691;28;19931;-77
2021/08/26 11:57:57;;;;;;;;;;;;;;;21.35;52.46;100527.38;5051005;28;19932;-77
2021/08/26 12:00:26;;;;;;;;;;;;;;;21.35;53.10;100530.06;5049524;28;19933;-77
2021/08/26 12:02:54;;;;;;;;;;;;;;;21.00;53.94;100524.63;5059290;28;19931;-75
2021/08/26 12:05:24;;;;;;;;;;;;;;;21.19;53.11;100535.72;5052473;28;19928;-75
2021/08/26 12:07:53;;;;;;;;;;;;;;;21.22;52.11;100532.84;5055299;28;19998;-75
2021/08/26 12:10:22;;;;;;;;;;;;;;;21.26;51.66;100525.38;5057756;28;19932;-77
2021/08/26 12:12:51;;;;;;;;;;;;;;;21.25;52.63;100526.38;5049215;28;19972;-76
2021/08/26 12:15:24;;;;;;;;;;;;;;;21.28;52.45;100527.97;5046394;28;19974;-76
2021/08/26 12:17:52;;;;;;;;;;;;;;;21.28;51.50;100523.44;5056714;28;20321;-74
2021/08/26 12:20:20;;;;;;;;;;;;;;;21.31;51.81;100535.78;5057919;28;19924;-75
2021/08/26 12:22:50;;;;;;;;;;;;;;;21.29;51.30;100540.41;5055635;28;19929;-75
2021/08/26 12:25:23;;;;;;;;;;;;;;;21.26;51.38;100536.13;5052443;28;19963;-76
2021/08/26 12:27:53;;;;;;;;;;;;;;;21.25;51.16;100537.13;5052807;28;19925;-76
2021/08/26 12:30:28;;;;;;;;;;;;;;;21.23;51.28;100539.94;5059153;28;19964;-77
2021/08/26 12:33:05;;;;;;;;;;;;;;;21.22;51.16;100542.72;5064822;28;20023;-76
2021/08/26 12:35:39;;;;;;;;;;;;;;;21.22;51.23;100538.22;5063117;28;19932;-76
2021/08/26 12:41:22;;;;;;;;;;;;;;;21.25;50.93;100538.94;5054236;28;19956;-74
2021/08/26 12:43:52;;;;;;;;;;;;;;;21.25;50.95;100553.25;5055089;28;20360;-74
2021/08/26 12:46:21;;;;;;;;;;;;;;;21.26;50.99;100546.88;5061149;28;19963;-74
2021/08/26 12:49:04;;;;;;;;;;;;;;;21.26;51.01;100546.88;5061853;28;20351;-75
2021/08/26 12:51:32;;;;;;;;;;;;;;;21.27;51.14;100555.81;5060987;28;19994;-75
2021/08/26 12:54:14;;;;;;;;;;;;;;;21.26;51.11;100554.94;5058262;28;19929;-75